Flight Track Log - Related Links

Times and Time Zones

All times are in EDT time to prevent confusion due to time zone crossing. See the TCF6008 flight status page for this flight to view local times or setup timezone preferences in your user account.

Time Position Orientation Groundspeed Altitude Reporting Facility
EDT Latitude Longitude Course Direction KTS MPH feet Rate Location/Type
Sun 07:22:53 PM 42.9333 -87.9000 124° Southeast 138 159 1,800  Level KMKE
Sun 07:25:00 PM 42.8915 -87.2969 185° South  Level Estimated
Sun 07:25:08 PM 42.8144 -87.9781 206° Southwest 242 278 6,800  Level Chicago Center
Sun 07:26:00 PM 42.8091 -87.3978 222° Southwest  Level FlightAware Approximate
Sun 07:26:10 PM 42.7458 -88.0169 203° Southwest 264 304 10,200  Level Chicago Center
Sun 07:27:00 PM 42.7958 -87.2479 180° South  Level Estimated
Sun 07:27:12 PM 42.6672 -88.0244 184° South 282 325 13,400  Level Chicago Center
Sun 07:28:00 PM 42.7824 -87.0982 124° Southeast  Level Estimated
Sun 07:28:14 PM 42.5886 -88.0331 185° South 283 326 16,200  Level Chicago Center
Sun 07:29:16 PM 42.5011 -88.0436 185° South 317 365 17,600 1,452 Climbing Chicago Center
Sun 07:30:18 PM 42.4117 -87.9972 159° South 370 426 19,200 1,935 Climbing Chicago Center
Sun 07:31:20 PM 42.3214 -87.8847 137° Southeast 379 436 21,600 2,081 Climbing Chicago Center
Sun 07:32:22 PM 42.2511 -87.7706 130° Southeast 399 459 23,500 1,645 Climbing Chicago Center
Sun 07:33:24 PM 42.2236 -87.6189 104° East 416 479 25,000 1,452 Climbing Chicago Center
Sun 07:34:26 PM 42.1950 -87.4647 104° East 422 486 26,500 1,355 Climbing Chicago Center
Sun 07:35:28 PM 42.1658 -87.3061 104° East 433 498 27,800 1,113 Climbing Chicago Center
Sun 07:36:30 PM 42.1358 -87.1456 104° East 441 507 28,800 1,113 Climbing Chicago Center
Sun 07:37:32 PM 42.0972 -86.9464 105° East 457 526 30,100 1,258 Climbing Chicago Center
Sun 07:38:34 PM 42.0656 -86.7789 104° East 463 533 31,400 1,306 Climbing Chicago Center
Sun 07:39:36 PM 42.0361 -86.6264 105° East 453 521 32,800 774 Climbing Chicago Center
Sun 07:40:38 PM 42.0044 -86.4639 105° East 450 518 33,000 97 Climbing Chicago Center
Sun 07:41:40 PM 41.9714 -86.2947 105° East 466 536 33,000  Level Chicago Center
Sun 07:42:42 PM 41.9444 -86.0886 100° East 471 542 33,000  Level Chicago Center
Sun 07:43:44 PM 41.9281 -85.9142 97° East 473 544 33,000  Level Chicago Center
Sun 07:44:46 PM 41.9117 -85.7392 97° East 472 543 33,000  Level Chicago Center
Sun 07:45:48 PM 41.8942 -85.5622 98° East 474 545 33,000  Level Chicago Center
Sun 07:46:50 PM 41.8772 -85.3844 97° East 475 547 33,000  Level Chicago Center
Sun 07:47:52 PM 41.8586 -85.2075 98° East 472 543 33,000  Level Chicago Center
Sun 07:48:54 PM 41.8414 -85.0303 97° East 474 545 33,000  Level Chicago Center
Sun 07:49:56 PM 41.8231 -84.8553 98° East 473 544 33,000  Level Chicago Center
Sun 07:50:58 PM 41.7994 -84.6436 98° East 475 547 33,000  Level Chicago Center
Sun 07:52:00 PM 41.7822 -84.4692 97° East 472 543 33,000  Level Chicago Center
Sun 07:53:04 PM 41.7728 -84.2919 94° East 467 537 33,000  Level Cleveland Center
Sun 07:54:04 PM 41.7558 -84.1017 97° East 467 537 33,000  Level Cleveland Center
Sun 07:55:04 PM 41.7444 -83.9258 95° East 467 537 33,000  Level Cleveland Center
Sun 07:56:04 PM 41.7306 -83.7525 96° East 467 537 33,000  Level Cleveland Center
Sun 07:57:04 PM 41.7208 -83.5767 94° East 467 537 33,000  Level Cleveland Center
Sun 07:58:04 PM 41.7064 -83.4036 96° East 467 537 33,000  Level Cleveland Center
Sun 07:59:04 PM 41.6961 -83.2250 94° East 467 537 33,000  Level Cleveland Center
Sun 08:00:04 PM 41.6831 -83.0550 96° East 467 537 33,000  Level Cleveland Center
Sun 08:01:04 PM 41.6700 -82.8792 96° East 467 537 33,000  Level Cleveland Center
Sun 08:02:04 PM 41.6547 -82.7064 97° East 467 537 33,000  Level Cleveland Center
Sun 08:03:04 PM 41.6453 -82.5339 94° East 467 537 33,000  Level Cleveland Center
Sun 08:04:04 PM 41.6292 -82.3611 97° East 472 543 33,000  Level Cleveland Center
Sun 08:05:04 PM 41.6153 -82.1858 96° East 472 543 33,000  Level Cleveland Center
Sun 08:06:04 PM 41.6008 -82.0131 96° East 466 536 33,000  Level Cleveland Center
Sun 08:07:04 PM 41.5881 -81.8547 96° East 466 536 33,000  Level Cleveland Center
Sun 08:08:04 PM 41.5731 -81.6850 97° East 466 536 33,000  Level Cleveland Center
Sun 08:09:04 PM 41.5603 -81.5100 96° East 466 536 33,000  Level Cleveland Center
Sun 08:10:04 PM 41.5447 -81.3350 97° East 471 542 33,000  Level Cleveland Center
Sun 08:11:04 PM 41.5250 -81.1461 98° East 471 542 33,000  Level Cleveland Center
Sun 08:12:04 PM 41.5111 -80.9658 96° East 476 548 33,000  Level Cleveland Center
Sun 08:13:04 PM 41.4928 -80.7911 98° East 476 548 33,000  Level Cleveland Center
Sun 08:14:04 PM 41.4783 -80.6136 96° East 482 555 33,000  Level Cleveland Center
Sun 08:15:04 PM 41.4617 -80.4364 97° East 482 555 33,000  Level Cleveland Center
Sun 08:16:04 PM 41.4467 -80.2756 97° East 482 555 33,000  Level Cleveland Center
Sun 08:17:04 PM 41.4275 -80.0986 98° East 482 555 33,000  Level Cleveland Center
Sun 08:18:04 PM 41.4078 -79.9078 98° East 477 549 33,000  Level Cleveland Center
Sun 08:19:04 PM 41.3897 -79.7306 98° East 477 549 33,000  Level Cleveland Center
Sun 08:20:04 PM 41.3739 -79.5731 98° East 477 549 33,000  Level Cleveland Center
Sun 08:21:04 PM 41.3556 -79.3964 98° East 483 556 33,000  Level Cleveland Center
Sun 08:22:04 PM 41.3369 -79.2225 98° East 483 556 33,000  Level Cleveland Center
Sun 08:23:04 PM 41.3181 -79.0486 98° East 478 550 33,000  Level Cleveland Center
Sun 08:24:04 PM 41.3011 -78.8778 97° East 478 550 33,000  Level Cleveland Center
Sun 08:25:04 PM 41.2817 -78.7014 98° East 478 550 33,000  Level Cleveland Center
Sun 08:26:04 PM 41.2619 -78.5281 99° East 478 550 33,000  Level Cleveland Center
Sun 08:26:51 PM 41.2406 -78.3706 100° East 473 544 33,000  Level New York Center
Sun 08:27:52 PM 41.2203 -78.1972 99° East 513 590 33,000  Level New York Center
Sun 08:28:51 PM 41.1978 -78.0236 100° East 491 565 33,000  Level New York Center
Sun 08:29:53 PM 41.1772 -77.8450 99° East 486 559 33,000 -496 Level New York Center
Sun 08:30:52 PM 41.1542 -77.6714 100° East 481 554 32,000 -1,361 Descending New York Center
Sun 08:31:52 PM 41.1331 -77.4958 99° East 481 554 30,300 -1,700 Descending New York Center
Sun 08:32:52 PM 41.1094 -77.3225 100° East 481 554 28,600 -1,700 Descending New York Center
Sun 08:33:52 PM 41.0878 -77.1444 99° East 481 554 26,900 -1,636 Descending New York Center
Sun 08:34:53 PM 41.0650 -76.9853 101° East 469 540 25,300 -1,537 Descending New York Center
Sun 08:35:53 PM 41.0439 -76.8264 100° East 447 514 23,800 -1,525 Descending New York Center
Sun 08:36:51 PM 41.0206 -76.6731 101° East 435 501 22,300 -1,450 Descending New York Center
Sun 08:37:53 PM 40.9881 -76.5272 106° East 425 489 20,900 -1,400 Descending New York Center
Sun 08:38:51 PM 40.9531 -76.3869 108° East 408 470 19,500 -1,361 Descending New York Center
Sun 08:39:52 PM 40.9242 -76.2528 106° East 392 451 18,200 -1,328 Descending New York Center
Sun 08:40:53 PM 40.8906 -76.1208 109° East 387 445 16,800 -1,361 Descending New York Center
Sun 08:41:51 PM 40.8644 -76.0064 107° East 367 422 15,500 -1,261 Descending New York Center
Sun 08:42:52 PM 40.8322 -75.8806 109° East 336 387 14,300 -1,131 Descending New York Center
Sun 08:43:53 PM 40.8056 -75.7742 108° East 311 358 13,200 -645 Descending New York Center
Sun 08:44:53 PM 40.7808 -75.6711 108° East 306 352 13,000 -99 Descending New York Center
Sun 08:45:54 PM 40.7575 -75.5764 108° East 301 346 13,000  Level New York Center
Sun 08:46:52 PM 40.7289 -75.4592 108° East 306 352 13,000  Level New York Center
Sun 08:47:51 PM 40.7061 -75.3508 105° East 306 352 13,000  Level New York Center
Sun 08:48:51 PM 40.6831 -75.2425 106° East 306 352 13,000 -246 Level New York Center
Sun 08:49:53 PM 40.6617 -75.1483 107° East 306 352 12,500 -1,140 Descending New York Center
Sun 08:50:52 PM 40.6025 -75.0597 131° Southeast 295 339 10,700 -1,261 Descending New York Center
Sun 08:51:52 PM 40.5597 -74.9750 124° Southeast 289 333 10,000 -331 Descending New York Center
Sun 08:52:59 PM 40.5167 -74.8667 118° Southeast 283 326 10,000  Level New York TRACON
Sun 08:53:53 PM 40.5000 -74.7833 105° East 282 325 10,000  Level New York TRACON
Sun 08:54:59 PM 40.4667 -74.6667 111° Southeast 278 320 10,000 -667 Level New York TRACON
Sun 08:55:59 PM 40.4333 -74.5833 118° Southeast 272 313 8,600 -1,053 Descending New York TRACON
Sun 08:56:53 PM 40.4333 -74.5000 90° East 266 306 8,000 -316 Descending New York TRACON
Sun 08:57:53 PM 40.4667 -74.4000 66° East 265 305 8,000 -100 Level New York TRACON
Sun 08:58:53 PM 40.4833 -74.3167 75° East 266 306 7,800 -476 Descending New York TRACON
Sun 08:59:59 PM 40.5167 -74.2167 66° East 254 292 7,000 -450 Descending New York TRACON
Sun 09:00:53 PM 40.5500 -74.1667 49° Northeast 216 249 6,900 -650 Descending New York TRACON
Sun 09:01:59 PM 40.6000 -74.1333 27° Northeast 182 209 5,700 -1,190 Descending New York TRACON
Sun 09:02:59 PM 40.6500 -74.1167 14° North 179 206 4,400 -850 Descending New York TRACON
Sun 09:03:59 PM 40.6833 -74.0833 37° Northeast 179 206 4,000 -200 Descending New York TRACON
Sun 09:04:59 PM 40.7333 -74.0500 27° Northeast 181 208 4,000  Level New York TRACON
Sun 09:05:59 PM 40.7833 -74.0167 27° Northeast 177 204 4,000  Level New York TRACON
Sun 09:06:59 PM 40.8167 -74.0000 21° North 181 208 4,000  Level New York TRACON
Sun 09:07:59 PM 40.8667 -73.9667 27° Northeast 180 207 4,000 -150 Level New York TRACON
Sun 09:08:59 PM 40.9000 -73.9167 49° Northeast 179 206 3,700 -750 Descending New York TRACON
Sun 09:09:59 PM 40.9167 -73.8500 72° East 180 207 2,500 -842 Descending New York TRACON
Sun 09:10:53 PM 40.9000 -73.8167 123° Southeast 186 214 2,100 -500 Descending New York TRACON
Sun 09:11:59 PM 40.8500 -73.8167 180° South 175 201 1,500 -545 Descending New York TRACON

Login

Don't have an account? Register now (free) for customized features, flight alerts, and more!